World Is Not Enough — 9HZH8 — position and weather

sailwx.info

Track history (hours):
 
Tides and Currents Weather Stations Pressure Air Temp Water Temp Dewpoint Dewpoint Depression Visibility Wind Speed Wind Dir Waves Ship Positions

World Is Not Enough

Last reported at 2016-Jul-30 12:32 UTC. Time now 2016-Jul-30 13:07 UTC.
Position N 41°23' E 002°11'.

Length 40 m; draft 1.8 m.

Type: Pleasure craft. MMSI: 256636000.

Date/timePositionNaut miles runAvg speedWind from/ knotsBaromVisibWave heightAir tempDewpointWater temp
2016-Jul-30 12:32N 41°23' E 002°11'0 0.0
2016-Jul-30 11:22N 41°23' E 002°11'0 0.0
2016-Jul-30 09:11N 41°23' E 002°11'0 0.0
2016-Jul-30 08:29N 41°23' E 002°11'0 0.0
2016-Jul-30 07:20N 41°23' E 002°11'24610.3
2016-Jul-29 07:19N 43°28' E 006°58'5 6.3
2016-Jul-29 06:33N 43°32' E 007°02'0 0.0
2016-Jul-29 05:33N 43°32' E 007°02'0 0.0
2016-Jul-29 00:27N 43°32' E 007°02'0 0.0
2016-Jul-28 21:33N 43°32' E 007°02'0 0.0
2016-Jul-28 20:31N 43°32' E 007°02'0 0.0
2016-Jul-28 19:33N 43°32' E 007°02'0 0.0
2016-Jul-28 18:33N 43°32' E 007°02'0 0.0
2016-Jul-28 17:33N 43°32' E 007°02'0 0.0
2016-Jul-28 16:33N 43°32' E 007°02'0 0.0
2016-Jul-28 15:33N 43°32' E 007°02'0 0.0
2016-Jul-28 14:33N 43°32' E 007°02'0 0.0
2016-Jul-28 13:33N 43°32' E 007°02'0 0.0
2016-Jul-28 12:33N 43°32' E 007°02'0 0.0
2016-Jul-28 11:33N 43°32' E 007°02'0 0.0
2016-Jul-28 10:33N 43°32' E 007°02'0 0.0
2016-Jul-28 09:33N 43°32' E 007°02'0 0.0
2016-Jul-28 08:33N 43°32' E 007°02'0 0.0
2016-Jul-28 07:33N 43°32' E 007°02'0 0.0
2016-Jul-28 06:33N 43°32' E 007°02'0 0.0
2016-Jul-28 05:33N 43°32' E 007°02'0 0.0
2016-Jul-28 01:33N 43°32' E 007°02'0 0.0
2016-Jul-28 00:33N 43°32' E 007°02'0 0.0
2016-Jul-27 21:08N 43°32' E 007°02'0 0.0
2016-Jul-27 20:33N 43°32' E 007°02'0 0.0
2016-Jul-27 19:33N 43°32' E 007°02'0 0.0
2016-Jul-27 18:33N 43°32' E 007°02'0 0.0
2016-Jul-27 17:33N 43°32' E 007°02'0 0.0
2016-Jul-27 16:34N 43°32' E 007°02'2 1.7
2016-Jul-27 15:33N 43°31' E 007°02'4 1.9
2016-Jul-27 13:13N 43°33' E 007°07'0 0.0
2016-Jul-27 12:30N 43°33' E 007°07'0 0.0
2016-Jul-27 11:24N 43°33' E 007°07'0 0.0
2016-Jul-27 10:27N 43°33' E 007°07'0 0.0
2016-Jul-27 09:33N 43°33' E 007°07'1 0.3
2016-Jul-27 06:31N 43°34' E 007°06'0 0.0
2016-Jul-27 05:06N 43°34' E 007°06'0 0.8
2016-Jul-27 04:33N 43°33' E 007°06'1010.2
2016-Jul-27 03:33N 43°25' E 007°13'1211.9
2016-Jul-27 02:33N 43°18' E 007°27'1512.1
2016-Jul-27 01:20N 43°09' E 007°43'912.0
2016-Jul-27 00:33N 43°04' E 007°53'1212.0
2016-Jul-26 23:33N 42°56' E 008°06'1211.7
2016-Jul-26 22:33N 42°49' E 008°19'1311.8
2016-Jul-26 21:26N 42°42' E 008°34'1011.8
2016-Jul-26 20:33N 42°35' E 008°45'2 1.2
2016-Jul-26 18:32N 42°34' E 008°47'0 0.0
2016-Jul-26 17:04N 42°34' E 008°47'0 0.1
2016-Jul-26 16:33N 42°34' E 008°47'0 0.0
2016-Jul-26 15:33N 42°34' E 008°47'0 0.1
2016-Jul-26 14:32N 42°34' E 008°47'0 0.0
2016-Jul-26 13:33N 42°34' E 008°47'0 0.0
2016-Jul-26 12:33N 42°34' E 008°47'0 0.0
2016-Jul-26 11:32N 42°34' E 008°47'0 0.0
2016-Jul-26 10:33N 42°34' E 008°47'0 0.0
2016-Jul-26 09:31N 42°34' E 008°47'0 0.0
2016-Jul-26 08:27N 42°34' E 008°47'0 0.0
2016-Jul-26 07:33N 42°34' E 008°47'0 0.0
2016-Jul-26 06:33N 42°34' E 008°47'0 0.0
2016-Jul-25 19:14N 42°34' E 008°47'0 0.0
2016-Jul-25 14:21N 42°34' E 008°47'0 0.0
2016-Jul-25 13:24N 42°34' E 008°47'0 0.0
2016-Jul-25 12:33N 42°34' E 008°47'0 0.0
2016-Jul-25 11:28N 42°34' E 008°47'0 0.3
2016-Jul-25 10:26N 42°34' E 008°47'39 2.0
2016-Jul-24 14:28N 43°07' E 009°17'1212.7
2016-Jul-24 13:33N 43°18' E 009°16'1212.3
2016-Jul-24 12:33N 43°31' E 009°16'1212.2
2016-Jul-24 11:33N 43°43' E 009°15'1211.7
2016-Jul-24 10:33N 43°54' E 009°15'1211.8
2016-Jul-24 09:33N 44°06' E 009°15'14 6.9
2016-Jul-24 07:33N 44°20' E 009°13'0 0.0
2016-Jul-23 11:18N 44°20' E 009°13'1 1.4
2016-Jul-23 10:33N 44°19' E 009°13'0 0.0
2016-Jul-23 09:32N 44°19' E 009°13'0 0.1
2016-Jul-23 08:32N 44°19' E 009°13'0 0.2
2016-Jul-23 07:33N 44°19' E 009°13'1 0.0
2016-Jul-22 16:32N 44°18' E 009°13'1 0.9
2016-Jul-22 15:25N 44°19' E 009°13'2 2.0
2016-Jul-22 14:33N 44°17' E 009°13'1312.7
2016-Jul-22 13:33N 44°12' E 008°58'1717.5
2016-Jul-22 12:33N 44°03' E 008°36'2221.1
2016-Jul-22 11:32N 43°53' E 008°09'1614.6
2016-Jul-22 10:27N 43°47' E 007°49'1512.9
2016-Jul-22 09:19N 43°45' E 007°30'3 3.2
2016-Jul-22 08:27N 43°44' E 007°26'0 0.0
2016-Jul-22 03:28N 43°44' E 007°26'0 0.0
2016-Jul-22 02:32N 43°44' E 007°26'0 0.0
2016-Jul-21 21:31N 43°44' E 007°26'0 0.0
2016-Jul-21 20:20N 43°44' E 007°26'0 0.0
2016-Jul-21 16:31N 43°44' E 007°26'0 0.0
2016-Jul-21 15:17N 43°44' E 007°26'0 0.0
2016-Jul-21 14:33N 43°44' E 007°26'0 0.0
2016-Jul-21 13:30N 43°44' E 007°26'0 0.0
2016-Jul-21 12:33N 43°44' E 007°26'0 0.0
2016-Jul-21 11:33N 43°44' E 007°26'0 0.0
2016-Jul-21 09:29N 43°44' E 007°26'0 0.0
2016-Jul-21 05:29N 43°44' E 007°26'0 0.0
2016-Jul-21 04:14N 43°44' E 007°26'0 0.0
2016-Jul-21 03:10N 43°44' E 007°26'0 0.0
2016-Jul-21 01:33N 43°44' E 007°26'0 0.0
2016-Jul-21 00:33N 43°44' E 007°26'0 0.0
2016-Jul-20 23:19N 43°44' E 007°26'0 0.0
2016-Jul-20 19:22N 43°44' E 007°26'0 0.0
2016-Jul-20 18:33N 43°44' E 007°26'0 0.0
2016-Jul-20 17:33N 43°44' E 007°26'0 0.0
2016-Jul-20 16:32N 43°44' E 007°26'0 0.0
2016-Jul-20 15:32N 43°44' E 007°26'0 0.0
2016-Jul-20 14:33N 43°44' E 007°26'0 0.0
2016-Jul-20 13:33N 43°44' E 007°26'3 3.1
2016-Jul-20 12:33N 43°42' E 007°23'  
Track history (hours):
 
Tides and Currents Weather Stations Pressure Air Temp Water Temp Dewpoint Dewpoint Depression Visibility Wind Speed Wind Dir Waves Ship Positions

World Is Not Enough

Last reported at 2016-Jul-30 12:32 UTC. Time now 2016-Jul-30 13:07 UTC.
Position N 41°23' E 002°11'.

Length 40 m; draft 1.8 m.

Type: Pleasure craft. MMSI: 256636000.

Date/timePositionNaut miles runAvg speedWind from/ knotsBaromVisibWave heightAir tempDewpointWater temp
2016-Jul-30 12:32N 41°23' E 002°11'0 0.0
2016-Jul-30 11:22N 41°23' E 002°11'0 0.0
2016-Jul-30 09:11N 41°23' E 002°11'0 0.0
2016-Jul-30 08:29N 41°23' E 002°11'0 0.0
2016-Jul-30 07:20N 41°23' E 002°11'24610.3
2016-Jul-29 07:19N 43°28' E 006°58'5 6.3
2016-Jul-29 06:33N 43°32' E 007°02'0 0.0
2016-Jul-29 05:33N 43°32' E 007°02'0 0.0
2016-Jul-29 00:27N 43°32' E 007°02'0 0.0
2016-Jul-28 21:33N 43°32' E 007°02'0 0.0
2016-Jul-28 20:31N 43°32' E 007°02'0 0.0
2016-Jul-28 19:33N 43°32' E 007°02'0 0.0
2016-Jul-28 18:33N 43°32' E 007°02'0 0.0
2016-Jul-28 17:33N 43°32' E 007°02'0 0.0
2016-Jul-28 16:33N 43°32' E 007°02'0 0.0
2016-Jul-28 15:33N 43°32' E 007°02'0 0.0
2016-Jul-28 14:33N 43°32' E 007°02'0 0.0
2016-Jul-28 13:33N 43°32' E 007°02'0 0.0
2016-Jul-28 12:33N 43°32' E 007°02'0 0.0
2016-Jul-28 11:33N 43°32' E 007°02'0 0.0
2016-Jul-28 10:33N 43°32' E 007°02'0 0.0
2016-Jul-28 09:33N 43°32' E 007°02'0 0.0
2016-Jul-28 08:33N 43°32' E 007°02'0 0.0
2016-Jul-28 07:33N 43°32' E 007°02'0 0.0
2016-Jul-28 06:33N 43°32' E 007°02'0 0.0
2016-Jul-28 05:33N 43°32' E 007°02'0 0.0
2016-Jul-28 01:33N 43°32' E 007°02'0 0.0
2016-Jul-28 00:33N 43°32' E 007°02'0 0.0
2016-Jul-27 21:08N 43°32' E 007°02'0 0.0
2016-Jul-27 20:33N 43°32' E 007°02'0 0.0
2016-Jul-27 19:33N 43°32' E 007°02'0 0.0
2016-Jul-27 18:33N 43°32' E 007°02'0 0.0
2016-Jul-27 17:33N 43°32' E 007°02'0 0.0
2016-Jul-27 16:34N 43°32' E 007°02'2 1.7
2016-Jul-27 15:33N 43°31' E 007°02'4 1.9
2016-Jul-27 13:13N 43°33' E 007°07'0 0.0
2016-Jul-27 12:30N 43°33' E 007°07'0 0.0
2016-Jul-27 11:24N 43°33' E 007°07'0 0.0
2016-Jul-27 10:27N 43°33' E 007°07'0 0.0
2016-Jul-27 09:33N 43°33' E 007°07'1 0.3
2016-Jul-27 06:31N 43°34' E 007°06'0 0.0
2016-Jul-27 05:06N 43°34' E 007°06'0 0.8
2016-Jul-27 04:33N 43°33' E 007°06'1010.2
2016-Jul-27 03:33N 43°25' E 007°13'1211.9
2016-Jul-27 02:33N 43°18' E 007°27'1512.1
2016-Jul-27 01:20N 43°09' E 007°43'912.0
2016-Jul-27 00:33N 43°04' E 007°53'1212.0
2016-Jul-26 23:33N 42°56' E 008°06'1211.7
2016-Jul-26 22:33N 42°49' E 008°19'1311.8
2016-Jul-26 21:26N 42°42' E 008°34'1011.8
2016-Jul-26 20:33N 42°35' E 008°45'2 1.2
2016-Jul-26 18:32N 42°34' E 008°47'0 0.0
2016-Jul-26 17:04N 42°34' E 008°47'0 0.1
2016-Jul-26 16:33N 42°34' E 008°47'0 0.0
2016-Jul-26 15:33N 42°34' E 008°47'0 0.1
2016-Jul-26 14:32N 42°34' E 008°47'0 0.0
2016-Jul-26 13:33N 42°34' E 008°47'0 0.0
2016-Jul-26 12:33N 42°34' E 008°47'0 0.0
2016-Jul-26 11:32N 42°34' E 008°47'0 0.0
2016-Jul-26 10:33N 42°34' E 008°47'0 0.0
2016-Jul-26 09:31N 42°34' E 008°47'0 0.0
2016-Jul-26 08:27N 42°34' E 008°47'0 0.0
2016-Jul-26 07:33N 42°34' E 008°47'0 0.0
2016-Jul-26 06:33N 42°34' E 008°47'0 0.0
2016-Jul-25 19:14N 42°34' E 008°47'0 0.0
2016-Jul-25 14:21N 42°34' E 008°47'0 0.0
2016-Jul-25 13:24N 42°34' E 008°47'0 0.0
2016-Jul-25 12:33N 42°34' E 008°47'0 0.0
2016-Jul-25 11:28N 42°34' E 008°47'0 0.3
2016-Jul-25 10:26N 42°34' E 008°47'39 2.0
2016-Jul-24 14:28N 43°07' E 009°17'1212.7
2016-Jul-24 13:33N 43°18' E 009°16'1212.3
2016-Jul-24 12:33N 43°31' E 009°16'1212.2
2016-Jul-24 11:33N 43°43' E 009°15'1211.7
2016-Jul-24 10:33N 43°54' E 009°15'1211.8
2016-Jul-24 09:33N 44°06' E 009°15'14 6.9
2016-Jul-24 07:33N 44°20' E 009°13'0 0.0
2016-Jul-23 11:18N 44°20' E 009°13'1 1.4
2016-Jul-23 10:33N 44°19' E 009°13'0 0.0
2016-Jul-23 09:32N 44°19' E 009°13'0 0.1
2016-Jul-23 08:32N 44°19' E 009°13'0 0.2
2016-Jul-23 07:33N 44°19' E 009°13'1 0.0
2016-Jul-22 16:32N 44°18' E 009°13'1 0.9
2016-Jul-22 15:25N 44°19' E 009°13'2 2.0
2016-Jul-22 14:33N 44°17' E 009°13'1312.7
2016-Jul-22 13:33N 44°12' E 008°58'1717.5
2016-Jul-22 12:33N 44°03' E 008°36'2221.1
2016-Jul-22 11:32N 43°53' E 008°09'1614.6
2016-Jul-22 10:27N 43°47' E 007°49'1512.9
2016-Jul-22 09:19N 43°45' E 007°30'3 3.2
2016-Jul-22 08:27N 43°44' E 007°26'0 0.0
2016-Jul-22 03:28N 43°44' E 007°26'0 0.0
2016-Jul-22 02:32N 43°44' E 007°26'0 0.0
2016-Jul-21 21:31N 43°44' E 007°26'0 0.0
2016-Jul-21 20:20N 43°44' E 007°26'0 0.0
2016-Jul-21 16:31N 43°44' E 007°26'0 0.0
2016-Jul-21 15:17N 43°44' E 007°26'0 0.0
2016-Jul-21 14:33N 43°44' E 007°26'0 0.0
2016-Jul-21 13:30N 43°44' E 007°26'0 0.0
2016-Jul-21 12:33N 43°44' E 007°26'0 0.0
2016-Jul-21 11:33N 43°44' E 007°26'0 0.0
2016-Jul-21 09:29N 43°44' E 007°26'0 0.0
2016-Jul-21 05:29N 43°44' E 007°26'0 0.0
2016-Jul-21 04:14N 43°44' E 007°26'0 0.0
2016-Jul-21 03:10N 43°44' E 007°26'0 0.0
2016-Jul-21 01:33N 43°44' E 007°26'0 0.0
2016-Jul-21 00:33N 43°44' E 007°26'0 0.0
2016-Jul-20 23:19N 43°44' E 007°26'0 0.0
2016-Jul-20 19:22N 43°44' E 007°26'0 0.0
2016-Jul-20 18:33N 43°44' E 007°26'0 0.0
2016-Jul-20 17:33N 43°44' E 007°26'0 0.0
2016-Jul-20 16:32N 43°44' E 007°26'0 0.0
2016-Jul-20 15:32N 43°44' E 007°26'0 0.0
2016-Jul-20 14:33N 43°44' E 007°26'0 0.0
2016-Jul-20 13:33N 43°44' E 007°26'3 3.1
2016-Jul-20 12:33N 43°42' E 007°23'  

Dump ship's entire track history